sensor_id;sensor_type;location;lat;lon;timestamp;P1;durP1;ratioP1;P2;durP2;ratioP2
68866;SDS011;56451;44.804;20.476;2023-05-27T00:00:07;13.83;;;8.87;;
68866;SDS011;56451;44.804;20.476;2023-05-27T00:02:34;12.73;;;8.65;;
68866;SDS011;56451;44.804;20.476;2023-05-27T00:05:00;12.90;;;9.82;;
68866;SDS011;56451;44.804;20.476;2023-05-27T00:07:27;11.57;;;9.02;;
68866;SDS011;56451;44.804;20.476;2023-05-27T00:09:53;13.88;;;8.43;;
68866;SDS011;56451;44.804;20.476;2023-05-27T00:12:20;17.07;;;8.93;;
68866;SDS011;56451;44.804;20.476;2023-05-27T00:14:46;14.07;;;9.20;;
68866;SDS011;56451;44.804;20.476;2023-05-27T00:17:12;13.52;;;8.82;;
68866;SDS011;56451;44.804;20.476;2023-05-27T00:19:41;11.52;;;7.90;;
68866;SDS011;56451;44.804;20.476;2023-05-27T00:22:11;10.63;;;8.43;;
68866;SDS011;56451;44.804;20.476;2023-05-27T00:24:37;10.83;;;7.87;;
68866;SDS011;56451;44.804;20.476;2023-05-27T00:27:05;13.32;;;7.53;;
68866;SDS011;56451;44.804;20.476;2023-05-27T00:29:33;11.20;;;8.07;;
68866;SDS011;56451;44.804;20.476;2023-05-27T00:31:59;10.00;;;7.60;;
68866;SDS011;56451;44.804;20.476;2023-05-27T00:34:31;9.98;;;7.05;;
68866;SDS011;56451;44.804;20.476;2023-05-27T00:37:00;14.00;;;7.70;;
68866;SDS011;56451;44.804;20.476;2023-05-27T00:39:26;10.82;;;7.50;;
68866;SDS011;56451;44.804;20.476;2023-05-27T00:41:53;9.13;;;7.05;;
68866;SDS011;56451;44.804;20.476;2023-05-27T00:44:20;14.38;;;7.60;;
68866;SDS011;56451;44.804;20.476;2023-05-27T00:46:47;11.13;;;7.33;;
68866;SDS011;56451;44.804;20.476;2023-05-27T00:49:13;10.30;;;7.03;;
68866;SDS011;56451;44.804;20.476;2023-05-27T00:51:39;10.77;;;6.57;;
68866;SDS011;56451;44.804;20.476;2023-05-27T00:54:07;10.20;;;7.07;;
68866;SDS011;56451;44.804;20.476;2023-05-27T00:56:33;8.75;;;6.90;;
68866;SDS011;56451;44.804;20.476;2023-05-27T00:59:00;8.93;;;6.60;;
68866;SDS011;56451;44.804;20.476;2023-05-27T01:01:26;11.43;;;6.38;;
68866;SDS011;56451;44.804;20.476;2023-05-27T01:03:52;10.18;;;6.38;;
68866;SDS011;56451;44.804;20.476;2023-05-27T01:11:53;11.47;;;7.03;;
68866;SDS011;56451;44.804;20.476;2023-05-27T01:14:27;10.32;;;6.55;;
68866;SDS011;56451;44.804;20.476;2023-05-27T01:16:56;8.50;;;5.88;;
68866;SDS011;56451;44.804;20.476;2023-05-27T01:19:44;11.45;;;6.07;;
68866;SDS011;56451;44.804;20.476;2023-05-27T01:22:11;11.85;;;6.97;;
68866;SDS011;56451;44.804;20.476;2023-05-27T01:24:41;11.17;;;6.93;;
68866;SDS011;56451;44.804;20.476;2023-05-27T01:27:10;11.45;;;6.85;;
68866;SDS011;56451;44.804;20.476;2023-05-27T01:29:42;9.25;;;6.03;;
68866;SDS011;56451;44.804;20.476;2023-05-27T01:32:30;9.57;;;6.70;;
68866;SDS011;56451;44.804;20.476;2023-05-27T01:38:20;11.37;;;7.33;;
68866;SDS011;56451;44.804;20.476;2023-05-27T01:40:48;9.57;;;6.57;;
68866;SDS011;56451;44.804;20.476;2023-05-27T01:43:16;11.20;;;6.75;;
68866;SDS011;56451;44.804;20.476;2023-05-27T01:45:43;13.43;;;7.00;;
68866;SDS011;56451;44.804;20.476;2023-05-27T01:48:09;12.07;;;6.67;;
68866;SDS011;56451;44.804;20.476;2023-05-27T01:50:35;10.10;;;6.70;;
68866;SDS011;56451;44.804;20.476;2023-05-27T01:53:02;13.65;;;7.32;;
68866;SDS011;56451;44.804;20.476;2023-05-27T01:55:29;12.18;;;6.82;;
68866;SDS011;56451;44.804;20.476;2023-05-27T01:57:57;10.70;;;6.80;;
68866;SDS011;56451;44.804;20.476;2023-05-27T02:00:23;11.17;;;6.57;;
68866;SDS011;56451;44.804;20.476;2023-05-27T02:02:51;10.88;;;7.07;;
68866;SDS011;56451;44.804;20.476;2023-05-27T02:05:17;10.88;;;6.88;;
68866;SDS011;56451;44.804;20.476;2023-05-27T02:07:43;10.13;;;6.10;;
68866;SDS011;56451;44.804;20.476;2023-05-27T02:10:09;10.73;;;6.70;;
68866;SDS011;56451;44.804;20.476;2023-05-27T02:12:36;7.60;;;6.20;;
68866;SDS011;56451;44.804;20.476;2023-05-27T02:15:03;9.18;;;6.15;;
68866;SDS011;56451;44.804;20.476;2023-05-27T02:17:31;7.60;;;5.95;;
68866;SDS011;56451;44.804;20.476;2023-05-27T02:19:56;9.27;;;6.22;;
68866;SDS011;56451;44.804;20.476;2023-05-27T02:22:22;10.90;;;6.13;;
68866;SDS011;56451;44.804;20.476;2023-05-27T02:24:49;8.27;;;6.40;;
68866;SDS011;56451;44.804;20.476;2023-05-27T02:27:15;10.07;;;6.25;;
68866;SDS011;56451;44.804;20.476;2023-05-27T02:29:41;12.20;;;6.45;;
68866;SDS011;56451;44.804;20.476;2023-05-27T02:32:08;9.25;;;6.07;;
68866;SDS011;56451;44.804;20.476;2023-05-27T02:34:34;11.63;;;6.53;;
68866;SDS011;56451;44.804;20.476;2023-05-27T02:37:06;11.15;;;6.47;;
68866;SDS011;56451;44.804;20.476;2023-05-27T02:39:32;9.40;;;6.47;;
68866;SDS011;56451;44.804;20.476;2023-05-27T02:41:58;10.35;;;6.53;;
68866;SDS011;56451;44.804;20.476;2023-05-27T02:44:24;10.20;;;6.50;;
68866;SDS011;56451;44.804;20.476;2023-05-27T02:46:51;12.43;;;6.45;;
68866;SDS011;56451;44.804;20.476;2023-05-27T02:49:17;9.43;;;6.75;;
68866;SDS011;56451;44.804;20.476;2023-05-27T02:51:43;10.15;;;6.18;;
68866;SDS011;56451;44.804;20.476;2023-05-27T02:54:09;10.77;;;6.37;;
68866;SDS011;56451;44.804;20.476;2023-05-27T02:56:35;9.13;;;5.78;;
68866;SDS011;56451;44.804;20.476;2023-05-27T02:59:01;9.60;;;6.28;;
68866;SDS011;56451;44.804;20.476;2023-05-27T03:01:27;8.60;;;6.20;;
68866;SDS011;56451;44.804;20.476;2023-05-27T03:03:52;10.27;;;6.38;;
68866;SDS011;56451;44.804;20.476;2023-05-27T03:06:18;10.05;;;5.78;;
68866;SDS011;56451;44.804;20.476;2023-05-27T03:08:44;9.07;;;6.10;;
68866;SDS011;56451;44.804;20.476;2023-05-27T03:11:10;7.00;;;5.55;;
68866;SDS011;56451;44.804;20.476;2023-05-27T03:13:36;8.95;;;5.55;;
68866;SDS011;56451;44.804;20.476;2023-05-27T03:16:03;10.10;;;5.72;;
68866;SDS011;56451;44.804;20.476;2023-05-27T03:18:29;11.93;;;6.60;;
68866;SDS011;56451;44.804;20.476;2023-05-27T03:20:55;8.77;;;6.15;;
68866;SDS011;56451;44.804;20.476;2023-05-27T03:23:21;10.63;;;6.05;;
68866;SDS011;56451;44.804;20.476;2023-05-27T03:25:48;10.23;;;5.45;;
68866;SDS011;56451;44.804;20.476;2023-05-27T03:28:14;9.40;;;5.30;;
68866;SDS011;56451;44.804;20.476;2023-05-27T03:30:41;7.50;;;5.82;;
68866;SDS011;56451;44.804;20.476;2023-05-27T03:33:11;6.80;;;5.53;;
68866;SDS011;56451;44.804;20.476;2023-05-27T03:35:37;9.03;;;6.10;;
68866;SDS011;56451;44.804;20.476;2023-05-27T03:38:03;9.85;;;5.32;;
68866;SDS011;56451;44.804;20.476;2023-05-27T03:40:29;11.15;;;5.75;;
68866;SDS011;56451;44.804;20.476;2023-05-27T03:42:56;8.03;;;5.47;;
68866;SDS011;56451;44.804;20.476;2023-05-27T03:45:23;9.00;;;5.45;;
68866;SDS011;56451;44.804;20.476;2023-05-27T03:47:49;8.05;;;4.97;;
68866;SDS011;56451;44.804;20.476;2023-05-27T03:50:18;9.85;;;5.20;;
68866;SDS011;56451;44.804;20.476;2023-05-27T03:52:46;9.07;;;5.35;;
68866;SDS011;56451;44.804;20.476;2023-05-27T03:55:12;7.00;;;5.03;;
68866;SDS011;56451;44.804;20.476;2023-05-27T03:57:39;8.07;;;5.50;;
68866;SDS011;56451;44.804;20.476;2023-05-27T04:00:06;6.72;;;5.38;;
68866;SDS011;56451;44.804;20.476;2023-05-27T04:02:48;9.07;;;5.07;;
68866;SDS011;56451;44.804;20.476;2023-05-27T04:05:17;8.32;;;5.40;;
68866;SDS011;56451;44.804;20.476;2023-05-27T04:07:43;9.70;;;6.07;;
68866;SDS011;56451;44.804;20.476;2023-05-27T04:10:09;10.02;;;5.63;;
68866;SDS011;56451;44.804;20.476;2023-05-27T04:12:36;9.52;;;6.10;;
68866;SDS011;56451;44.804;20.476;2023-05-27T04:15:02;8.83;;;5.93;;
68866;SDS011;56451;44.804;20.476;2023-05-27T04:17:31;9.32;;;5.43;;
68866;SDS011;56451;44.804;20.476;2023-05-27T04:19:57;9.10;;;5.90;;
68866;SDS011;56451;44.804;20.476;2023-05-27T04:22:24;9.65;;;5.50;;
68866;SDS011;56451;44.804;20.476;2023-05-27T04:24:51;10.57;;;5.43;;
68866;SDS011;56451;44.804;20.476;2023-05-27T04:27:18;8.05;;;5.78;;
68866;SDS011;56451;44.804;20.476;2023-05-27T04:29:45;7.68;;;5.38;;
68866;SDS011;56451;44.804;20.476;2023-05-27T04:32:12;11.45;;;5.85;;
68866;SDS011;56451;44.804;20.476;2023-05-27T04:34:39;8.00;;;5.28;;
68866;SDS011;56451;44.804;20.476;2023-05-27T04:37:07;7.30;;;5.40;;
68866;SDS011;56451;44.804;20.476;2023-05-27T04:39:36;7.10;;;5.57;;
68866;SDS011;56451;44.804;20.476;2023-05-27T04:42:02;8.90;;;5.32;;
68866;SDS011;56451;44.804;20.476;2023-05-27T04:44:32;8.90;;;5.65;;
68866;SDS011;56451;44.804;20.476;2023-05-27T04:47:00;8.70;;;5.65;;
68866;SDS011;56451;44.804;20.476;2023-05-27T04:49:25;8.83;;;5.47;;
68866;SDS011;56451;44.804;20.476;2023-05-27T04:51:53;8.52;;;5.88;;
68866;SDS011;56451;44.804;20.476;2023-05-27T04:54:20;10.75;;;5.43;;
68866;SDS011;56451;44.804;20.476;2023-05-27T04:56:47;9.90;;;5.28;;
68866;SDS011;56451;44.804;20.476;2023-05-27T04:59:21;10.02;;;6.07;;
68866;SDS011;56451;44.804;20.476;2023-05-27T05:01:56;10.23;;;5.50;;
68866;SDS011;56451;44.804;20.476;2023-05-27T05:04:39;9.25;;;5.53;;
68866;SDS011;56451;44.804;20.476;2023-05-27T05:07:05;12.10;;;5.82;;
68866;SDS011;56451;44.804;20.476;2023-05-27T05:09:33;10.10;;;5.55;;
68866;SDS011;56451;44.804;20.476;2023-05-27T05:12:06;9.65;;;5.32;;
68866;SDS011;56451;44.804;20.476;2023-05-27T05:14:37;9.53;;;5.43;;
68866;SDS011;56451;44.804;20.476;2023-05-27T05:17:03;10.10;;;5.60;;
68866;SDS011;56451;44.804;20.476;2023-05-27T05:19:29;10.63;;;5.75;;
68866;SDS011;56451;44.804;20.476;2023-05-27T05:21:55;13.00;;;6.78;;
68866;SDS011;56451;44.804;20.476;2023-05-27T05:24:21;12.43;;;6.60;;
68866;SDS011;56451;44.804;20.476;2023-05-27T05:26:48;10.80;;;7.10;;
68866;SDS011;56451;44.804;20.476;2023-05-27T05:29:17;10.80;;;6.45;;
68866;SDS011;56451;44.804;20.476;2023-05-27T05:31:43;9.05;;;6.47;;
68866;SDS011;56451;44.804;20.476;2023-05-27T05:34:11;10.82;;;7.20;;
68866;SDS011;56451;44.804;20.476;2023-05-27T05:36:37;10.07;;;6.47;;
68866;SDS011;56451;44.804;20.476;2023-05-27T05:39:07;14.05;;;6.95;;
68866;SDS011;56451;44.804;20.476;2023-05-27T05:41:37;10.18;;;7.35;;
68866;SDS011;56451;44.804;20.476;2023-05-27T05:44:03;10.43;;;7.38;;
68866;SDS011;56451;44.804;20.476;2023-05-27T05:46:30;11.75;;;7.03;;
68866;SDS011;56451;44.804;20.476;2023-05-27T05:48:56;12.00;;;7.30;;
68866;SDS011;56451;44.804;20.476;2023-05-27T05:51:32;12.77;;;7.03;;
68866;SDS011;56451;44.804;20.476;2023-05-27T05:53:59;11.32;;;7.05;;
68866;SDS011;56451;44.804;20.476;2023-05-27T05:56:25;10.27;;;6.65;;
68866;SDS011;56451;44.804;20.476;2023-05-27T05:58:51;13.02;;;7.25;;
68866;SDS011;56451;44.804;20.476;2023-05-27T06:01:18;14.27;;;7.50;;
68866;SDS011;56451;44.804;20.476;2023-05-27T06:03:44;11.07;;;6.78;;
68866;SDS011;56451;44.804;20.476;2023-05-27T06:06:22;9.32;;;6.50;;
68866;SDS011;56451;44.804;20.476;2023-05-27T06:09:08;10.88;;;7.32;;
68866;SDS011;56451;44.804;20.476;2023-05-27T06:11:34;10.40;;;7.35;;
68866;SDS011;56451;44.804;20.476;2023-05-27T06:14:00;11.03;;;7.60;;
68866;SDS011;56451;44.804;20.476;2023-05-27T06:16:26;12.30;;;7.65;;
68866;SDS011;56451;44.804;20.476;2023-05-27T06:18:54;11.90;;;8.27;;
68866;SDS011;56451;44.804;20.476;2023-05-27T06:21:20;12.20;;;7.75;;
68866;SDS011;56451;44.804;20.476;2023-05-27T06:24:21;12.52;;;7.82;;
68866;SDS011;56451;44.804;20.476;2023-05-27T06:26:54;12.83;;;7.67;;
68866;SDS011;56451;44.804;20.476;2023-05-27T06:29:20;12.35;;;7.70;;
68866;SDS011;56451;44.804;20.476;2023-05-27T06:31:46;11.82;;;8.27;;
68866;SDS011;56451;44.804;20.476;2023-05-27T06:34:17;12.00;;;7.72;;
68866;SDS011;56451;44.804;20.476;2023-05-27T06:36:43;12.33;;;7.73;;
68866;SDS011;56451;44.804;20.476;2023-05-27T06:39:10;12.35;;;7.68;;
68866;SDS011;56451;44.804;20.476;2023-05-27T06:41:37;11.45;;;7.97;;
68866;SDS011;56451;44.804;20.476;2023-05-27T06:44:23;14.02;;;7.65;;
68866;SDS011;56451;44.804;20.476;2023-05-27T06:47:03;11.00;;;7.85;;
68866;SDS011;56451;44.804;20.476;2023-05-27T06:49:29;11.80;;;8.30;;
68866;SDS011;56451;44.804;20.476;2023-05-27T06:51:58;11.93;;;8.23;;
68866;SDS011;56451;44.804;20.476;2023-05-27T06:54:26;15.80;;;8.50;;
68866;SDS011;56451;44.804;20.476;2023-05-27T06:56:59;12.93;;;8.20;;
68866;SDS011;56451;44.804;20.476;2023-05-27T06:59:55;13.50;;;8.77;;
68866;SDS011;56451;44.804;20.476;2023-05-27T07:02:21;10.80;;;8.20;;
68866;SDS011;56451;44.804;20.476;2023-05-27T07:04:47;12.50;;;8.68;;
68866;SDS011;56451;44.804;20.476;2023-05-27T07:07:13;13.30;;;9.90;;
68866;SDS011;56451;44.804;20.476;2023-05-27T07:09:39;11.57;;;8.65;;
68866;SDS011;56451;44.804;20.476;2023-05-27T07:12:07;17.20;;;9.40;;
68866;SDS011;56451;44.804;20.476;2023-05-27T07:14:45;13.97;;;9.60;;
68866;SDS011;56451;44.804;20.476;2023-05-27T07:17:12;12.60;;;9.10;;
68866;SDS011;56451;44.804;20.476;2023-05-27T07:19:38;13.55;;;9.70;;
68866;SDS011;56451;44.804;20.476;2023-05-27T07:22:09;11.00;;;8.95;;
68866;SDS011;56451;44.804;20.476;2023-05-27T07:24:35;14.50;;;9.82;;
68866;SDS011;56451;44.804;20.476;2023-05-27T07:27:01;10.73;;;8.80;;
68866;SDS011;56451;44.804;20.476;2023-05-27T07:29:29;14.18;;;9.40;;
68866;SDS011;56451;44.804;20.476;2023-05-27T07:32:14;15.68;;;9.57;;
68866;SDS011;56451;44.804;20.476;2023-05-27T07:34:40;12.98;;;10.20;;
68866;SDS011;56451;44.804;20.476;2023-05-27T07:37:06;16.52;;;10.27;;
68866;SDS011;56451;44.804;20.476;2023-05-27T07:39:32;13.70;;;9.97;;
68866;SDS011;56451;44.804;20.476;2023-05-27T07:41:58;15.18;;;9.90;;
68866;SDS011;56451;44.804;20.476;2023-05-27T07:44:27;14.20;;;9.07;;
68866;SDS011;56451;44.804;20.476;2023-05-27T07:46:54;13.02;;;10.15;;
68866;SDS011;56451;44.804;20.476;2023-05-27T07:49:20;14.13;;;10.20;;
68866;SDS011;56451;44.804;20.476;2023-05-27T07:52:06;14.38;;;10.30;;
68866;SDS011;56451;44.804;20.476;2023-05-27T07:54:32;12.68;;;9.95;;
68866;SDS011;56451;44.804;20.476;2023-05-27T07:56:58;13.57;;;11.23;;
68866;SDS011;56451;44.804;20.476;2023-05-27T07:59:24;16.87;;;11.20;;
68866;SDS011;56451;44.804;20.476;2023-05-27T08:01:51;15.02;;;10.70;;
68866;SDS011;56451;44.804;20.476;2023-05-27T08:04:16;15.63;;;10.95;;
68866;SDS011;56451;44.804;20.476;2023-05-27T08:07:01;16.33;;;11.10;;
68866;SDS011;56451;44.804;20.476;2023-05-27T08:09:47;14.60;;;10.43;;
68866;SDS011;56451;44.804;20.476;2023-05-27T08:12:45;12.23;;;10.30;;
68866;SDS011;56451;44.804;20.476;2023-05-27T08:15:15;19.83;;;11.90;;
68866;SDS011;56451;44.804;20.476;2023-05-27T08:17:59;15.88;;;11.32;;
68866;SDS011;56451;44.804;20.476;2023-05-27T08:20:36;15.50;;;10.70;;
68866;SDS011;56451;44.804;20.476;2023-05-27T08:23:21;17.40;;;11.93;;
68866;SDS011;56451;44.804;20.476;2023-05-27T08:25:54;16.87;;;10.87;;
68866;SDS011;56451;44.804;20.476;2023-05-27T08:28:49;13.77;;;10.93;;
68866;SDS011;56451;44.804;20.476;2023-05-27T08:31:30;15.82;;;11.55;;
68866;SDS011;56451;44.804;20.476;2023-05-27T08:33:58;17.77;;;11.30;;
68866;SDS011;56451;44.804;20.476;2023-05-27T08:36:25;14.25;;;10.93;;
68866;SDS011;56451;44.804;20.476;2023-05-27T08:38:51;15.97;;;11.43;;
68866;SDS011;56451;44.804;20.476;2023-05-27T08:41:20;15.32;;;11.60;;
68866;SDS011;56451;44.804;20.476;2023-05-27T08:43:48;17.73;;;11.75;;
68866;SDS011;56451;44.804;20.476;2023-05-27T08:46:16;13.95;;;10.88;;
68866;SDS011;56451;44.804;20.476;2023-05-27T08:48:43;16.40;;;11.85;;
68866;SDS011;56451;44.804;20.476;2023-05-27T08:51:09;16.37;;;11.27;;
68866;SDS011;56451;44.804;20.476;2023-05-27T08:53:37;14.55;;;10.70;;
68866;SDS011;56451;44.804;20.476;2023-05-27T08:56:04;19.20;;;11.63;;
68866;SDS011;56451;44.804;20.476;2023-05-27T08:58:34;15.63;;;11.07;;
68866;SDS011;56451;44.804;20.476;2023-05-27T09:01:00;15.75;;;12.18;;
68866;SDS011;56451;44.804;20.476;2023-05-27T09:03:27;17.40;;;11.13;;
68866;SDS011;56451;44.804;20.476;2023-05-27T09:05:55;14.48;;;11.48;;
68866;SDS011;56451;44.804;20.476;2023-05-27T09:08:21;15.73;;;11.05;;
68866;SDS011;56451;44.804;20.476;2023-05-27T09:10:48;17.83;;;10.93;;
68866;SDS011;56451;44.804;20.476;2023-05-27T09:13:24;13.73;;;10.20;;
68866;SDS011;56451;44.804;20.476;2023-05-27T09:15:57;15.73;;;11.38;;
68866;SDS011;56451;44.804;20.476;2023-05-27T09:18:33;15.65;;;11.32;;
68866;SDS011;56451;44.804;20.476;2023-05-27T09:21:01;15.65;;;11.75;;
68866;SDS011;56451;44.804;20.476;2023-05-27T09:23:27;14.07;;;10.90;;
68866;SDS011;56451;44.804;20.476;2023-05-27T09:25:53;14.67;;;10.93;;
68866;SDS011;56451;44.804;20.476;2023-05-27T09:28:22;16.10;;;10.70;;
68866;SDS011;56451;44.804;20.476;2023-05-27T09:30:58;13.95;;;10.77;;
68866;SDS011;56451;44.804;20.476;2023-05-27T09:33:34;16.50;;;11.02;;
68866;SDS011;56451;44.804;20.476;2023-05-27T09:36:02;17.73;;;11.80;;
68866;SDS011;56451;44.804;20.476;2023-05-27T09:38:29;14.48;;;11.02;;
68866;SDS011;56451;44.804;20.476;2023-05-27T09:40:56;14.70;;;11.18;;
68866;SDS011;56451;44.804;20.476;2023-05-27T09:43:23;16.30;;;11.05;;
68866;SDS011;56451;44.804;20.476;2023-05-27T09:45:50;15.55;;;10.45;;
68866;SDS011;56451;44.804;20.476;2023-05-27T09:48:18;16.37;;;10.50;;
68866;SDS011;56451;44.804;20.476;2023-05-27T09:50:46;15.13;;;11.55;;
68866;SDS011;56451;44.804;20.476;2023-05-27T09:53:13;13.40;;;10.80;;
68866;SDS011;56451;44.804;20.476;2023-05-27T09:55:39;14.70;;;11.13;;
68866;SDS011;56451;44.804;20.476;2023-05-27T09:58:07;14.27;;;11.13;;
68866;SDS011;56451;44.804;20.476;2023-05-27T10:00:33;17.03;;;10.50;;
68866;SDS011;56451;44.804;20.476;2023-05-27T10:02:59;15.90;;;11.50;;
68866;SDS011;56451;44.804;20.476;2023-05-27T10:05:26;16.25;;;11.40;;
68866;SDS011;56451;44.804;20.476;2023-05-27T10:07:52;14.25;;;11.13;;
68866;SDS011;56451;44.804;20.476;2023-05-27T10:10:18;15.87;;;10.30;;
68866;SDS011;56451;44.804;20.476;2023-05-27T10:12:46;16.07;;;11.70;;
68866;SDS011;56451;44.804;20.476;2023-05-27T10:15:21;14.15;;;12.38;;
68866;SDS011;56451;44.804;20.476;2023-05-27T10:17:58;14.35;;;11.80;;
68866;SDS011;56451;44.804;20.476;2023-05-27T10:23:09;17.40;;;12.55;;
68866;SDS011;56451;44.804;20.476;2023-05-27T10:25:39;14.97;;;12.10;;
68866;SDS011;56451;44.804;20.476;2023-05-27T10:28:11;17.58;;;11.85;;
68866;SDS011;56451;44.804;20.476;2023-05-27T10:31:03;13.25;;;11.50;;
68866;SDS011;56451;44.804;20.476;2023-05-27T10:33:36;14.13;;;11.52;;
68866;SDS011;56451;44.804;20.476;2023-05-27T10:36:11;15.38;;;12.60;;
68866;SDS011;56451;44.804;20.476;2023-05-27T10:39:02;16.73;;;13.53;;
68866;SDS011;56451;44.804;20.476;2023-05-27T10:41:40;20.77;;;13.75;;
68866;SDS011;56451;44.804;20.476;2023-05-27T10:44:13;19.55;;;12.73;;
68866;SDS011;56451;44.804;20.476;2023-05-27T10:46:58;16.50;;;13.40;;
68866;SDS011;56451;44.804;20.476;2023-05-27T10:49:27;19.50;;;14.02;;
68866;SDS011;56451;44.804;20.476;2023-05-27T10:52:18;16.57;;;13.80;;
68866;SDS011;56451;44.804;20.476;2023-05-27T10:54:51;15.57;;;13.05;;
68866;SDS011;56451;44.804;20.476;2023-05-27T10:57:19;17.92;;;11.35;;
68866;SDS011;56451;44.804;20.476;2023-05-27T10:59:48;20.70;;;13.15;;
68866;SDS011;56451;44.804;20.476;2023-05-27T11:02:18;15.45;;;12.88;;
68866;SDS011;56451;44.804;20.476;2023-05-27T11:04:45;17.93;;;14.00;;
68866;SDS011;56451;44.804;20.476;2023-05-27T11:07:12;17.58;;;14.65;;
68866;SDS011;56451;44.804;20.476;2023-05-27T11:09:46;15.43;;;12.75;;
68866;SDS011;56451;44.804;20.476;2023-05-27T11:12:17;18.30;;;14.20;;
68866;SDS011;56451;44.804;20.476;2023-05-27T11:14:45;16.48;;;13.35;;
68866;SDS011;56451;44.804;20.476;2023-05-27T11:17:12;16.47;;;12.90;;
68866;SDS011;56451;44.804;20.476;2023-05-27T11:19:39;18.77;;;13.43;;
68866;SDS011;56451;44.804;20.476;2023-05-27T11:22:07;17.90;;;13.93;;
68866;SDS011;56451;44.804;20.476;2023-05-27T11:24:34;16.33;;;12.65;;
68866;SDS011;56451;44.804;20.476;2023-05-27T11:27:35;15.30;;;13.10;;
68866;SDS011;56451;44.804;20.476;2023-05-27T11:30:11;17.83;;;13.30;;
68866;SDS011;56451;44.804;20.476;2023-05-27T11:32:37;15.25;;;13.07;;
68866;SDS011;56451;44.804;20.476;2023-05-27T11:35:04;18.83;;;13.55;;
68866;SDS011;56451;44.804;20.476;2023-05-27T11:37:31;18.60;;;13.65;;
68866;SDS011;56451;44.804;20.476;2023-05-27T11:39:59;18.90;;;13.75;;
68866;SDS011;56451;44.804;20.476;2023-05-27T11:42:27;18.97;;;13.43;;
68866;SDS011;56451;44.804;20.476;2023-05-27T11:44:54;16.30;;;13.38;;
68866;SDS011;56451;44.804;20.476;2023-05-27T11:47:21;16.40;;;13.13;;
68866;SDS011;56451;44.804;20.476;2023-05-27T11:49:48;19.48;;;14.00;;
68866;SDS011;56451;44.804;20.476;2023-05-27T11:52:15;17.48;;;14.23;;
68866;SDS011;56451;44.804;20.476;2023-05-27T11:54:41;17.17;;;13.30;;
68866;SDS011;56451;44.804;20.476;2023-05-27T11:57:06;16.80;;;12.85;;
68866;SDS011;56451;44.804;20.476;2023-05-27T11:59:33;15.15;;;13.10;;
68866;SDS011;56451;44.804;20.476;2023-05-27T12:02:00;15.50;;;12.52;;
68866;SDS011;56451;44.804;20.476;2023-05-27T12:04:26;17.30;;;13.07;;
68866;SDS011;56451;44.804;20.476;2023-05-27T12:06:52;18.27;;;14.60;;
68866;SDS011;56451;44.804;20.476;2023-05-27T12:09:18;16.58;;;14.10;;
68866;SDS011;56451;44.804;20.476;2023-05-27T12:11:44;17.60;;;13.73;;
68866;SDS011;56451;44.804;20.476;2023-05-27T12:14:10;18.07;;;13.20;;
68866;SDS011;56451;44.804;20.476;2023-05-27T12:16:36;14.93;;;12.18;;
68866;SDS011;56451;44.804;20.476;2023-05-27T12:19:02;14.73;;;11.75;;
68866;SDS011;56451;44.804;20.476;2023-05-27T12:21:28;17.40;;;14.03;;
68866;SDS011;56451;44.804;20.476;2023-05-27T12:23:54;17.27;;;13.38;;
68866;SDS011;56451;44.804;20.476;2023-05-27T12:26:20;18.05;;;12.98;;
68866;SDS011;56451;44.804;20.476;2023-05-27T12:28:47;16.45;;;12.57;;
68866;SDS011;56451;44.804;20.476;2023-05-27T12:31:13;16.07;;;13.07;;
68866;SDS011;56451;44.804;20.476;2023-05-27T12:33:39;18.77;;;14.07;;
68866;SDS011;56451;44.804;20.476;2023-05-27T12:36:05;15.45;;;12.60;;
68866;SDS011;56451;44.804;20.476;2023-05-27T12:38:31;15.38;;;12.65;;
68866;SDS011;56451;44.804;20.476;2023-05-27T12:40:57;15.15;;;11.98;;
68866;SDS011;56451;44.804;20.476;2023-05-27T12:43:23;17.90;;;12.43;;
68866;SDS011;56451;44.804;20.476;2023-05-27T12:45:49;16.58;;;12.73;;
68866;SDS011;56451;44.804;20.476;2023-05-27T12:48:16;13.55;;;11.80;;
68866;SDS011;56451;44.804;20.476;2023-05-27T12:50:46;17.20;;;13.65;;
68866;SDS011;56451;44.804;20.476;2023-05-27T12:53:12;17.00;;;13.43;;
68866;SDS011;56451;44.804;20.476;2023-05-27T12:55:38;16.07;;;13.03;;
68866;SDS011;56451;44.804;20.476;2023-05-27T12:58:04;14.57;;;12.50;;
68866;SDS011;56451;44.804;20.476;2023-05-27T13:00:30;16.98;;;12.65;;
68866;SDS011;56451;44.804;20.476;2023-05-27T13:02:59;16.48;;;13.25;;
68866;SDS011;56451;44.804;20.476;2023-05-27T13:05:26;15.17;;;12.63;;
68866;SDS011;56451;44.804;20.476;2023-05-27T13:07:53;17.63;;;11.43;;
68866;SDS011;56451;44.804;20.476;2023-05-27T13:10:21;12.55;;;10.68;;
68866;SDS011;56451;44.804;20.476;2023-05-27T13:12:47;14.98;;;9.82;;
68866;SDS011;56451;44.804;20.476;2023-05-27T13:15:13;11.00;;;9.73;;
68866;SDS011;56451;44.804;20.476;2023-05-27T13:17:42;12.63;;;9.45;;
68866;SDS011;56451;44.804;20.476;2023-05-27T13:20:12;14.00;;;9.82;;
68866;SDS011;56451;44.804;20.476;2023-05-27T13:22:39;17.00;;;10.50;;
68866;SDS011;56451;44.804;20.476;2023-05-27T13:25:06;13.57;;;9.33;;
68866;SDS011;56451;44.804;20.476;2023-05-27T13:27:32;10.98;;;8.60;;
68866;SDS011;56451;44.804;20.476;2023-05-27T13:29:58;11.73;;;8.55;;
68866;SDS011;56451;44.804;20.476;2023-05-27T13:32:24;13.48;;;8.93;;
68866;SDS011;56451;44.804;20.476;2023-05-27T13:34:50;13.57;;;9.02;;
68866;SDS011;56451;44.804;20.476;2023-05-27T13:37:17;14.07;;;9.13;;
68866;SDS011;56451;44.804;20.476;2023-05-27T13:39:43;13.38;;;9.30;;
68866;SDS011;56451;44.804;20.476;2023-05-27T13:42:09;11.48;;;9.60;;
68866;SDS011;56451;44.804;20.476;2023-05-27T13:44:36;12.75;;;9.20;;
68866;SDS011;56451;44.804;20.476;2023-05-27T13:47:02;12.45;;;9.50;;
68866;SDS011;56451;44.804;20.476;2023-05-27T13:49:28;10.03;;;8.97;;
68866;SDS011;56451;44.804;20.476;2023-05-27T13:51:54;12.57;;;9.40;;
68866;SDS011;56451;44.804;20.476;2023-05-27T13:54:20;13.02;;;10.07;;
68866;SDS011;56451;44.804;20.476;2023-05-27T13:56:46;12.90;;;10.10;;
68866;SDS011;56451;44.804;20.476;2023-05-27T13:59:12;12.63;;;9.30;;
68866;SDS011;56451;44.804;20.476;2023-05-27T14:01:38;10.80;;;9.70;;
68866;SDS011;56451;44.804;20.476;2023-05-27T14:04:06;14.10;;;9.85;;
68866;SDS011;56451;44.804;20.476;2023-05-27T14:06:32;12.25;;;9.73;;
68866;SDS011;56451;44.804;20.476;2023-05-27T14:08:58;13.20;;;10.07;;
68866;SDS011;56451;44.804;20.476;2023-05-27T14:11:24;15.00;;;10.35;;
68866;SDS011;56451;44.804;20.476;2023-05-27T14:13:51;16.63;;;11.35;;
68866;SDS011;56451;44.804;20.476;2023-05-27T14:16:19;11.20;;;8.77;;
68866;SDS011;56451;44.804;20.476;2023-05-27T14:18:47;15.27;;;10.33;;
68866;SDS011;56451;44.804;20.476;2023-05-27T14:21:13;12.98;;;10.45;;
68866;SDS011;56451;44.804;20.476;2023-05-27T14:23:40;12.45;;;9.88;;
68866;SDS011;56451;44.804;20.476;2023-05-27T14:26:06;16.30;;;9.05;;
68866;SDS011;56451;44.804;20.476;2023-05-27T14:28:33;15.80;;;10.07;;
68866;SDS011;56451;44.804;20.476;2023-05-27T14:30:59;15.63;;;11.30;;
68866;SDS011;56451;44.804;20.476;2023-05-27T14:33:26;11.30;;;10.10;;
68866;SDS011;56451;44.804;20.476;2023-05-27T14:35:51;13.80;;;10.88;;
68866;SDS011;56451;44.804;20.476;2023-05-27T14:38:17;10.90;;;9.80;;